Louisbourg, Canada
Current Conditions -  °F | °C
As of 9:00 AM on Thursday 18 Dec 2014 (Local Time) from CYQY Reporting Station
Light Rain Light Rain  
Wind Chill: 38°   Ceiling: 400
Heat Index: 45°   Visibility: 1mi
Dew Point: 45°   Wind: 13mph
Humidity: 100%   Direction: 160°SSE
Pressure: 29.53"   Gusts: 22mph
Location:  45.92°N, 59.98°W
Report Text: CYQY 181300Z 16011G19KT 1SM R07/P6000FT/U -RA BR FEW002 OVC004 07/07 A2953 RMK ST2NS6 SLP000
Loading
Personal Weather Stations






























Interactive Weather Map New forecast layout! Learn more

10-Day Weather Forecast

Advertisements
Track Severe Weather on mobile